Time;durP1;ratioP1;P1;durP2;ratioP2;P2;SDS_P1;SDS_P2;PMS_P1;PMS_P2;Temp;Humidity;BMP_temperature;BMP_pressure;BME280_temperature;BME280_humidity;BME280_pressure;Samples;Min_cycle;Max_cycle;Signal;HPM_P1;HPM_P2
2021/12/02 00:00:50;;;;;;;;;;;20.90;43.00;;;;;;5134566;27;20355;-56
2021/12/02 00:03:15;;;;;;;;;;;20.80;42.90;;;;;;5134443;27;19912;-54
2021/12/02 00:05:41;;;;;;;;;;;20.80;42.90;;;;;;5134533;27;19911;-53
2021/12/02 00:08:06;;;;;;;;;;;20.80;42.90;;;;;;5134583;27;19911;-56
2021/12/02 00:10:34;;;;;;;;;;;20.80;42.90;;;;;;5134766;27;19915;-53
2021/12/02 00:13:01;;;;;;;;;;;20.80;42.90;;;;;;5134498;27;20337;-54
2021/12/02 00:15:36;;;;;;;;;;;20.80;42.90;;;;;;5134493;27;20007;-52
2021/12/02 00:21:07;;;;;;;;;;;20.80;42.90;;;;;;5110186;28;20384;-56
2021/12/02 00:23:37;;;;;;;;;;;20.80;42.90;;;;;;5134341;28;19951;-55
2021/12/02 00:26:07;;;;;;;;;;;20.70;42.90;;;;;;5134534;28;19912;-55
2021/12/02 00:28:35;;;;;;;;;;;20.70;42.90;;;;;;5134643;28;19908;-55
2021/12/02 00:31:01;;;;;;;;;;;20.70;43.00;;;;;;5134231;28;20351;-56
2021/12/02 00:33:28;;;;;;;;;;;20.70;43.00;;;;;;5134311;28;19911;-52
2021/12/02 00:35:53;;;;;;;;;;;20.70;43.00;;;;;;5134265;28;19908;-56
2021/12/02 00:38:20;;;;;;;;;;;20.70;43.00;;;;;;5134260;28;19914;-51
2021/12/02 00:40:46;;;;;;;;;;;20.70;42.90;;;;;;5134401;28;20290;-55
2021/12/02 00:43:12;;;;;;;;;;;20.70;42.90;;;;;;5134229;28;19911;-56
2021/12/02 00:45:39;;;;;;;;;;;20.60;42.90;;;;;;5134493;28;19912;-54
2021/12/02 00:48:06;;;;;;;;;;;20.60;42.90;;;;;;5134245;28;19957;-54
2021/12/02 00:50:32;;;;;;;;;;;20.60;42.90;;;;;;5134096;28;19915;-55
2021/12/02 00:52:57;;;;;;;;;;;20.60;42.90;;;;;;5134427;28;20270;-54
2021/12/02 00:55:24;;;;;;;;;;;20.60;42.80;;;;;;5134373;28;20351;-56
2021/12/02 00:57:49;;;;;;;;;;;20.60;42.80;;;;;;5133957;27;19919;-56
2021/12/02 01:00:15;;;;;;;;;;;20.60;42.80;;;;;;5137807;27;20316;-53
2021/12/02 01:02:42;;;;;;;;;;;20.60;42.80;;;;;;5138338;27;19908;-55
2021/12/02 01:05:07;;;;;;;;;;;20.60;42.80;;;;;;5137899;27;19927;-53
2021/12/02 01:07:33;;;;;;;;;;;20.60;42.80;;;;;;5137934;27;19911;-55
2021/12/02 01:09:59;;;;;;;;;;;20.60;42.80;;;;;;5138148;27;19915;-55
2021/12/02 01:12:25;;;;;;;;;;;20.50;42.80;;;;;;5137893;27;20025;-54
2021/12/02 01:14:50;;;;;;;;;;;20.60;42.80;;;;;;5137914;27;19973;-55
2021/12/02 01:17:16;;;;;;;;;;;20.60;42.70;;;;;;5137816;27;19908;-51
2021/12/02 01:19:41;;;;;;;;;;;20.50;42.70;;;;;;5137745;27;19995;-52
2021/12/02 01:22:07;;;;;;;;;;;20.50;42.80;;;;;;5137610;27;20274;-54
2021/12/02 01:24:33;;;;;;;;;;;20.50;42.70;;;;;;5137768;27;19915;-56
2021/12/02 01:27:01;;;;;;;;;;;20.50;42.70;;;;;;5137709;27;19933;-56
2021/12/02 01:29:26;;;;;;;;;;;20.50;42.70;;;;;;5137537;27;19912;-56
2021/12/02 01:31:54;;;;;;;;;;;20.50;42.70;;;;;;5137692;27;20009;-54
2021/12/02 01:34:25;;;;;;;;;;;20.50;42.70;;;;;;5137660;27;19921;-56
2021/12/02 01:36:51;;;;;;;;;;;20.50;42.70;;;;;;5137371;27;19952;-55
2021/12/02 01:39:16;;;;;;;;;;;20.50;42.70;;;;;;5137357;27;20333;-56
2021/12/02 01:41:44;;;;;;;;;;;20.50;42.70;;;;;;5137275;27;19951;-53
2021/12/02 01:44:11;;;;;;;;;;;20.50;42.70;;;;;;5137214;27;19916;-53
2021/12/02 01:46:38;;;;;;;;;;;20.50;42.70;;;;;;5137201;27;19934;-55
2021/12/02 01:49:04;;;;;;;;;;;20.40;42.70;;;;;;5137098;27;19961;-56
2021/12/02 01:51:31;;;;;;;;;;;20.40;42.70;;;;;;5137368;27;19908;-55
2021/12/02 01:54:05;;;;;;;;;;;20.40;42.80;;;;;;5137096;27;19953;-54
2021/12/02 01:56:31;;;;;;;;;;;20.40;42.70;;;;;;5137116;27;20287;-51
2021/12/02 01:59:00;;;;;;;;;;;20.40;42.70;;;;;;5137004;27;20006;-56
2021/12/02 02:01:26;;;;;;;;;;;20.40;42.70;;;;;;5136746;27;19908;-55
2021/12/02 02:03:53;;;;;;;;;;;20.40;42.70;;;;;;5137003;27;20018;-54
2021/12/02 02:06:25;;;;;;;;;;;20.40;42.70;;;;;;5136963;27;19961;-52
2021/12/02 02:08:51;;;;;;;;;;;20.40;42.70;;;;;;5136799;27;19907;-54
2021/12/02 02:11:16;;;;;;;;;;;20.40;42.70;;;;;;5135807;27;19952;-56
2021/12/02 02:13:43;;;;;;;;;;;20.40;42.60;;;;;;5136875;27;19907;-56
2021/12/02 02:16:09;;;;;;;;;;;20.40;42.70;;;;;;5136765;27;19907;-54
2021/12/02 02:18:35;;;;;;;;;;;20.40;42.70;;;;;;5136489;27;20243;-55
2021/12/02 02:21:02;;;;;;;;;;;20.40;42.70;;;;;;5136508;27;19932;-51
2021/12/02 02:23:30;;;;;;;;;;;20.40;42.70;;;;;;5136633;27;19954;-54
2021/12/02 02:25:56;;;;;;;;;;;20.30;42.70;;;;;;5136373;27;19915;-55
2021/12/02 02:28:22;;;;;;;;;;;20.40;42.70;;;;;;5136282;27;20009;-55
2021/12/02 02:30:47;;;;;;;;;;;20.30;42.70;;;;;;5136209;27;19958;-54
2021/12/02 02:33:14;;;;;;;;;;;20.30;42.70;;;;;;5136188;27;19908;-51
2021/12/02 02:35:40;;;;;;;;;;;20.30;42.70;;;;;;5136527;27;19914;-56
2021/12/02 02:38:06;;;;;;;;;;;20.30;42.60;;;;;;5136116;27;20369;-56
2021/12/02 02:40:32;;;;;;;;;;;20.30;42.60;;;;;;5136457;27;19914;-55
2021/12/02 02:43:04;;;;;;;;;;;20.30;42.70;;;;;;5136232;27;19912;-51
2021/12/02 02:45:30;;;;;;;;;;;20.30;42.60;;;;;;5136378;27;19919;-54
2021/12/02 02:47:55;;;;;;;;;;;20.20;42.70;;;;;;5136023;27;19908;-53
2021/12/02 02:50:21;;;;;;;;;;;20.30;42.70;;;;;;5135966;27;20251;-56
2021/12/02 02:52:46;;;;;;;;;;;20.20;42.70;;;;;;5135897;27;19920;-56
2021/12/02 02:55:18;;;;;;;;;;;20.30;42.80;;;;;;5135731;27;19960;-55
2021/12/02 02:58:00;;;;;;;;;;;20.20;42.80;;;;;;5135620;27;19919;-55
2021/12/02 03:00:33;;;;;;;;;;;20.20;42.80;;;;;;5135708;27;20384;-51
2021/12/02 03:06:00;;;;;;;;;;;20.20;42.70;;;;;;5135756;27;19911;-56
2021/12/02 03:08:34;;;;;;;;;;;20.20;42.70;;;;;;5135887;27;19953;-55
2021/12/02 03:11:00;;;;;;;;;;;20.20;42.60;;;;;;5135728;27;19958;-53
2021/12/02 03:13:37;;;;;;;;;;;20.20;42.50;;;;;;5135523;27;19922;-55
2021/12/02 03:18:47;;;;;;;;;;;20.20;42.60;;;;;;5135469;27;20322;-55
2021/12/02 03:21:22;;;;;;;;;;;20.20;42.50;;;;;;5135205;27;19955;-55
2021/12/02 03:23:56;;;;;;;;;;;20.10;42.60;;;;;;5135438;27;20006;-54
2021/12/02 03:26:22;;;;;;;;;;;20.20;42.50;;;;;;5135322;27;20358;-55
2021/12/02 03:28:48;;;;;;;;;;;20.10;42.50;;;;;;5135500;27;19919;-52
2021/12/02 03:31:14;;;;;;;;;;;20.10;42.50;;;;;;5135162;27;20006;-50
2021/12/02 03:33:41;;;;;;;;;;;20.10;42.50;;;;;;5135175;27;19958;-55
2021/12/02 03:36:06;;;;;;;;;;;20.10;42.50;;;;;;5135133;27;19952;-54
2021/12/02 03:38:31;;;;;;;;;;;20.10;42.40;;;;;;5135163;27;19908;-56
2021/12/02 03:40:57;;;;;;;;;;;20.10;42.50;;;;;;5134978;27;19996;-54
2021/12/02 03:43:22;;;;;;;;;;;20.10;42.50;;;;;;5135117;27;19918;-56
2021/12/02 03:45:48;;;;;;;;;;;20.10;42.40;;;;;;5134865;27;20358;-56
2021/12/02 03:48:13;;;;;;;;;;;20.10;42.40;;;;;;5135170;27;19914;-56
2021/12/02 03:50:39;;;;;;;;;;;20.10;42.40;;;;;;5134783;27;19916;-50
2021/12/02 03:53:04;;;;;;;;;;;20.10;42.40;;;;;;5135072;27;19915;-55
2021/12/02 03:55:30;;;;;;;;;;;20.10;42.40;;;;;;5134749;27;19908;-55
2021/12/02 03:57:55;;;;;;;;;;;20.10;42.40;;;;;;5135065;27;19920;-56
2021/12/02 04:00:21;;;;;;;;;;;20.00;42.40;;;;;;5134721;27;19911;-53
2021/12/02 04:02:46;;;;;;;;;;;20.10;42.40;;;;;;5134566;27;20302;-56
2021/12/02 04:05:11;;;;;;;;;;;20.10;42.40;;;;;;5134496;27;19915;-55
2021/12/02 04:07:37;;;;;;;;;;;20.10;42.30;;;;;;5134527;27;19911;-56
2021/12/02 04:10:03;;;;;;;;;;;20.00;42.30;;;;;;5134676;27;19962;-53
2021/12/02 04:12:43;;;;;;;;;;;20.00;42.40;;;;;;5134753;27;19998;-51
2021/12/02 04:15:13;;;;;;;;;;;20.00;42.40;;;;;;5134482;27;19907;-53
2021/12/02 04:17:42;;;;;;;;;;;20.00;42.30;;;;;;5134444;27;19908;-51
2021/12/02 04:20:22;;;;;;;;;;;20.00;42.40;;;;;;5134784;27;20335;-54
2021/12/02 04:22:48;;;;;;;;;;;20.00;42.30;;;;;;5134418;27;19911;-55
2021/12/02 04:25:14;;;;;;;;;;;20.00;42.40;;;;;;5134291;28;19923;-53
2021/12/02 04:27:39;;;;;;;;;;;20.00;42.30;;;;;;5134312;28;20327;-54
2021/12/02 04:30:08;;;;;;;;;;;20.00;42.30;;;;;;5134558;28;19943;-55
2021/12/02 04:32:33;;;;;;;;;;;20.00;42.30;;;;;;5134263;28;19908;-53
2021/12/02 04:34:59;;;;;;;;;;;20.00;42.30;;;;;;5137687;27;20354;-50
2021/12/02 04:37:24;;;;;;;;;;;20.00;42.30;;;;;;5138649;27;19911;-51
2021/12/02 04:39:50;;;;;;;;;;;20.00;42.40;;;;;;5138420;27;20003;-54
2021/12/02 04:42:16;;;;;;;;;;;20.00;42.40;;;;;;5138519;27;19912;-55
2021/12/02 04:44:41;;;;;;;;;;;20.00;42.40;;;;;;5138366;27;19915;-55
2021/12/02 04:47:07;;;;;;;;;;;20.00;42.40;;;;;;5138647;27;19911;-53
2021/12/02 04:49:32;;;;;;;;;;;20.00;42.40;;;;;;5138364;27;20255;-54
2021/12/02 04:51:58;;;;;;;;;;;20.00;42.40;;;;;;5138243;27;20002;-56
2021/12/02 04:54:23;;;;;;;;;;;20.00;42.40;;;;;;5138163;27;20038;-54
2021/12/02 04:56:49;;;;;;;;;;;19.90;42.30;;;;;;5138010;27;19964;-51
2021/12/02 04:59:14;;;;;;;;;;;20.00;42.30;;;;;;5138370;27;20366;-56
2021/12/02 05:01:40;;;;;;;;;;;20.00;42.30;;;;;;5138115;27;19907;-56
2021/12/02 05:04:05;;;;;;;;;;;19.90;42.30;;;;;;5138258;27;19915;-56
2021/12/02 05:06:31;;;;;;;;;;;19.90;42.30;;;;;;5137989;27;19908;-54
2021/12/02 05:08:57;;;;;;;;;;;19.90;42.30;;;;;;5137905;27;20265;-55
2021/12/02 05:11:23;;;;;;;;;;;20.00;42.40;;;;;;5138127;27;20103;-54
2021/12/02 05:13:49;;;;;;;;;;;19.90;42.30;;;;;;5137836;27;19907;-54
2021/12/02 05:16:15;;;;;;;;;;;19.90;42.30;;;;;;5119413;27;19908;-54
2021/12/02 05:18:40;;;;;;;;;;;20.00;42.30;;;;;;5137825;27;19907;-56
2021/12/02 05:21:06;;;;;;;;;;;19.90;42.20;;;;;;5137770;27;19977;-55
2021/12/02 05:23:31;;;;;;;;;;;20.00;42.20;;;;;;5137605;27;19912;-53
2021/12/02 05:25:57;;;;;;;;;;;20.00;42.20;;;;;;5137681;27;20308;-55
2021/12/02 05:28:22;;;;;;;;;;;20.00;42.20;;;;;;5137589;27;19908;-56
2021/12/02 05:30:48;;;;;;;;;;;20.00;42.10;;;;;;5137496;27;19907;-55
2021/12/02 05:33:13;;;;;;;;;;;20.10;42.10;;;;;;5137590;27;19907;-54
2021/12/02 05:35:39;;;;;;;;;;;20.10;42.00;;;;;;5137680;27;19914;-54
2021/12/02 05:38:04;;;;;;;;;;;20.10;42.00;;;;;;5137660;27;19915;-54
2021/12/02 05:40:30;;;;;;;;;;;20.10;42.00;;;;;;5137368;27;20366;-53
2021/12/02 05:42:55;;;;;;;;;;;20.10;42.00;;;;;;5137357;27;20180;-55
2021/12/02 05:45:21;;;;;;;;;;;20.10;41.90;;;;;;5135753;27;19922;-54
2021/12/02 05:47:46;;;;;;;;;;;20.20;41.90;;;;;;5137463;27;19908;-54
2021/12/02 05:50:12;;;;;;;;;;;20.10;41.90;;;;;;5137112;27;19994;-51
2021/12/02 05:52:37;;;;;;;;;;;20.20;41.90;;;;;;5137000;27;20259;-51
2021/12/02 05:55:03;;;;;;;;;;;20.20;41.90;;;;;;5137072;27;19907;-54
2021/12/02 05:57:31;;;;;;;;;;;20.20;41.80;;;;;;5136744;27;19926;-55
2021/12/02 05:59:57;;;;;;;;;;;20.20;41.80;;;;;;5137274;27;19951;-55
2021/12/02 06:02:23;;;;;;;;;;;20.30;41.80;;;;;;5136888;27;20328;-54
2021/12/02 06:04:51;;;;;;;;;;;20.20;41.80;;;;;;5137047;27;19921;-56
2021/12/02 06:07:17;;;;;;;;;;;20.20;41.80;;;;;;5136752;27;19943;-54
2021/12/02 06:09:43;;;;;;;;;;;20.30;41.80;;;;;;5136841;27;19930;-56
2021/12/02 06:12:09;;;;;;;;;;;20.30;41.70;;;;;;5137014;27;20374;-53
2021/12/02 06:14:34;;;;;;;;;;;20.30;41.70;;;;;;5136568;27;20000;-54
2021/12/02 06:17:00;;;;;;;;;;;20.30;41.70;;;;;;5136870;27;19907;-52
2021/12/02 06:19:25;;;;;;;;;;;20.30;41.70;;;;;;5136595;27;19914;-55
2021/12/02 06:21:51;;;;;;;;;;;20.30;41.70;;;;;;5118202;27;19907;-54
2021/12/02 06:24:17;;;;;;;;;;;20.40;41.70;;;;;;5136493;27;20020;-52
2021/12/02 06:26:42;;;;;;;;;;;20.40;41.60;;;;;;5136494;27;20006;-52
2021/12/02 06:29:08;;;;;;;;;;;20.40;41.60;;;;;;5136514;27;19998;-52
2021/12/02 06:31:33;;;;;;;;;;;20.40;41.70;;;;;;5136405;27;19914;-52
2021/12/02 06:33:59;;;;;;;;;;;20.40;41.70;;;;;;5136331;27;20362;-52
2021/12/02 06:36:24;;;;;;;;;;;20.40;41.60;;;;;;5136180;27;19911;-55
2021/12/02 06:38:50;;;;;;;;;;;20.40;41.60;;;;;;5136491;27;19907;-55
2021/12/02 06:41:16;;;;;;;;;;;20.40;41.60;;;;;;5136153;27;19998;-54
2021/12/02 06:43:41;;;;;;;;;;;20.50;41.60;;;;;;5136332;27;19919;-56
2021/12/02 06:46:07;;;;;;;;;;;20.50;41.60;;;;;;5136067;27;20056;-55
2021/12/02 06:48:32;;;;;;;;;;;20.50;41.50;;;;;;5136035;27;19908;-52
2021/12/02 06:50:57;;;;;;;;;;;20.50;41.60;;;;;;5135788;27;19907;-53
2021/12/02 06:53:23;;;;;;;;;;;20.40;41.50;;;;;;5136165;27;19915;-55
2021/12/02 06:55:48;;;;;;;;;;;20.50;41.60;;;;;;5136033;27;20334;-55
2021/12/02 06:58:14;;;;;;;;;;;20.50;41.50;;;;;;5135315;27;19919;-55
2021/12/02 07:00:39;;;;;;;;;;;20.50;41.50;;;;;;5117318;27;19915;-55
2021/12/02 07:03:05;;;;;;;;;;;20.50;41.50;;;;;;5135726;27;19908;-54
2021/12/02 07:05:32;;;;;;;;;;;20.50;41.50;;;;;;5135625;27;20371;-54
2021/12/02 07:07:58;;;;;;;;;;;20.50;41.50;;;;;;5135903;27;19951;-52
2021/12/02 07:10:25;;;;;;;;;;;20.50;41.40;;;;;;5135689;27;20293;-56
2021/12/02 07:12:58;;;;;;;;;;;20.50;41.50;;;;;;5135589;27;19915;-56
2021/12/02 07:15:34;;;;;;;;;;;20.50;41.60;;;;;;5135438;27;19967;-53
2021/12/02 07:18:01;;;;;;;;;;;20.50;41.60;;;;;;5135857;27;19907;-52
2021/12/02 07:20:29;;;;;;;;;;;20.60;41.40;;;;;;5117078;27;20363;-56
2021/12/02 07:22:55;;;;;;;;;;;20.60;41.40;;;;;;5135364;27;20359;-54
2021/12/02 07:25:21;;;;;;;;;;;20.60;41.40;;;;;;5135150;27;20435;-55
2021/12/02 07:27:47;;;;;;;;;;;20.60;41.50;;;;;;5135237;27;19908;-55
2021/12/02 07:30:13;;;;;;;;;;;20.60;41.50;;;;;;5135238;27;19914;-54
2021/12/02 07:32:40;;;;;;;;;;;20.60;41.40;;;;;;5134931;27;19907;-56
2021/12/02 07:35:10;;;;;;;;;;;20.60;41.50;;;;;;5135196;27;19936;-54
2021/12/02 07:37:35;;;;;;;;;;;20.70;41.50;;;;;;5135000;27;19907;-51
2021/12/02 07:40:02;;;;;;;;;;;20.70;41.50;;;;;;5134906;27;19908;-55
2021/12/02 07:42:28;;;;;;;;;;;20.60;41.50;;;;;;5135036;27;19911;-55
2021/12/02 07:44:54;;;;;;;;;;;20.60;41.40;;;;;;5134918;27;19922;-56
2021/12/02 07:47:20;;;;;;;;;;;20.60;41.40;;;;;;5134746;27;19907;-52
2021/12/02 07:49:47;;;;;;;;;;;20.70;41.40;;;;;;5135048;27;19914;-50
2021/12/02 07:52:13;;;;;;;;;;;20.70;41.30;;;;;;5134874;27;19961;-54
2021/12/02 07:54:41;;;;;;;;;;;20.70;41.50;;;;;;5135753;27;19911;-59
2021/12/02 07:57:10;;;;;;;;;;;20.70;41.40;;;;;;5134449;27;19940;-55
2021/12/02 07:59:36;;;;;;;;;;;20.70;41.70;;;;;;5134299;27;19907;-53
2021/12/02 08:02:02;;;;;;;;;;;20.70;41.50;;;;;;5133260;27;20397;-54
2021/12/02 08:04:28;;;;;;;;;;;20.70;41.50;;;;;;5134006;27;19926;-53
2021/12/02 08:06:54;;;;;;;;;;;20.70;41.50;;;;;;5133839;27;19908;-56
2021/12/02 08:09:20;;;;;;;;;;;20.80;41.50;;;;;;5133298;27;19990;-53
2021/12/02 08:11:45;;;;;;;;;;;20.80;41.30;;;;;;5133671;27;19914;-52
2021/12/02 08:14:15;;;;;;;;;;;20.80;41.40;;;;;;5133935;27;19915;-51
2021/12/02 08:16:40;;;;;;;;;;;20.80;41.30;;;;;;5133889;27;19953;-52
2021/12/02 08:19:06;;;;;;;;;;;20.80;41.20;;;;;;5133764;27;19912;-52
2021/12/02 08:21:31;;;;;;;;;;;20.80;41.30;;;;;;5133895;27;19907;-54
2021/12/02 08:23:57;;;;;;;;;;;20.90;41.50;;;;;;5133637;28;19926;-53
2021/12/02 08:26:22;;;;;;;;;;;20.80;41.40;;;;;;5133545;28;20011;-50
2021/12/02 08:28:48;;;;;;;;;;;20.90;41.40;;;;;;5133772;28;20275;-50
2021/12/02 08:31:15;;;;;;;;;;;20.90;41.40;;;;;;5133516;28;19914;-50
2021/12/02 08:33:41;;;;;;;;;;;20.90;41.50;;;;;;5133106;28;19908;-50
2021/12/02 08:36:06;;;;;;;;;;;20.90;41.40;;;;;;5133558;28;20303;-57
2021/12/02 08:38:33;;;;;;;;;;;20.90;41.40;;;;;;5133642;28;20006;-56
2021/12/02 08:41:01;;;;;;;;;;;20.90;41.40;;;;;;5133365;28;19911;-55
2021/12/02 08:43:27;;;;;;;;;;;20.90;41.40;;;;;;5132933;28;19922;-54
2021/12/02 08:45:52;;;;;;;;;;;20.90;41.40;;;;;;5133109;28;19911;-58
2021/12/02 08:48:18;;;;;;;;;;;21.00;41.40;;;;;;5133675;28;19953;-57
2021/12/02 08:50:45;;;;;;;;;;;21.00;41.30;;;;;;5133450;28;20255;-57
2021/12/02 08:53:11;;;;;;;;;;;21.00;41.40;;;;;;5133660;28;19908;-59
2021/12/02 08:55:37;;;;;;;;;;;21.00;41.40;;;;;;5132799;28;19912;-55
2021/12/02 08:58:04;;;;;;;;;;;21.00;41.60;;;;;;5133592;28;20278;-55
2021/12/02 09:00:34;;;;;;;;;;;20.80;40.20;;;;;;5133653;28;19919;-59
2021/12/02 09:03:00;;;;;;;;;;;20.70;41.00;;;;;;5129432;27;20423;-51
2021/12/02 09:05:26;;;;;;;;;;;20.70;41.00;;;;;;5154022;27;20285;-58
2021/12/02 09:07:52;;;;;;;;;;;20.70;41.10;;;;;;5154051;27;20362;-59
2021/12/02 09:10:21;;;;;;;;;;;20.70;41.00;;;;;;5154089;27;20317;-59
2021/12/02 09:12:47;;;;;;;;;;;20.70;40.90;;;;;;5153140;27;19915;-60
2021/12/02 09:15:12;;;;;;;;;;;20.80;40.70;;;;;;5154018;27;19907;-59
2021/12/02 09:17:38;;;;;;;;;;;20.80;40.80;;;;;;5142854;27;19911;-56
2021/12/02 09:20:07;;;;;;;;;;;20.80;40.60;;;;;;5134620;27;19907;-55
2021/12/02 09:22:33;;;;;;;;;;;20.80;40.70;;;;;;5141724;27;19907;-59
2021/12/02 09:24:58;;;;;;;;;;;20.80;40.80;;;;;;5146792;27;20363;-56
2021/12/02 09:27:24;;;;;;;;;;;20.80;40.40;;;;;;5149102;27;19911;-57
2021/12/02 09:29:49;;;;;;;;;;;20.70;40.40;;;;;;5157571;27;19938;-59
2021/12/02 09:32:15;;;;;;;;;;;20.80;40.40;;;;;;5139379;27;20268;-57
2021/12/02 09:34:41;;;;;;;;;;;20.70;40.60;;;;;;5136997;27;20270;-54
2021/12/02 09:37:06;;;;;;;;;;;20.80;40.70;;;;;;5136255;27;19960;-58
2021/12/02 09:39:34;;;;;;;;;;;20.80;40.70;;;;;;5136293;27;19927;-58
2021/12/02 09:41:59;;;;;;;;;;;20.70;40.60;;;;;;5135932;27;20366;-55
2021/12/02 09:44:25;;;;;;;;;;;20.70;40.40;;;;;;5136706;27;19915;-54
2021/12/02 09:46:51;;;;;;;;;;;20.70;40.20;;;;;;5136200;27;20011;-54
2021/12/02 09:49:17;;;;;;;;;;;20.70;40.40;;;;;;5135903;27;20358;-54
2021/12/02 09:54:18;;;;;;;;;;;20.70;40.50;;;;;;5136426;27;19915;-54
2021/12/02 09:56:46;;;;;;;;;;;20.70;40.60;;;;;;5136315;27;20002;-55
2021/12/02 09:59:24;;;;;;;;;;;20.70;40.60;;;;;;5135872;27;20030;-56
2021/12/02 10:01:55;;;;;;;;;;;20.70;39.40;;;;;;5136762;27;19907;-58
2021/12/02 10:04:21;;;;;;;;;;;20.60;39.40;;;;;;5135730;27;20282;-54
2021/12/02 10:06:47;;;;;;;;;;;20.60;40.00;;;;;;5136052;27;19908;-55
2021/12/02 10:09:17;;;;;;;;;;;20.70;40.20;;;;;;5136317;27;19907;-58
2021/12/02 10:11:55;;;;;;;;;;;20.70;40.20;;;;;;5135951;27;19911;-58
2021/12/02 10:14:39;;;;;;;;;;;20.70;40.10;;;;;;5135813;27;19907;-58
2021/12/02 10:17:11;;;;;;;;;;;20.70;40.30;;;;;;5135897;27;19907;-57
2021/12/02 10:19:56;;;;;;;;;;;20.70;40.40;;;;;;5135689;27;19915;-56
2021/12/02 10:22:23;;;;;;;;;;;20.70;40.40;;;;;;5135439;27;19972;-55
2021/12/02 10:24:48;;;;;;;;;;;20.70;40.10;;;;;;5135431;27;20247;-57
2021/12/02 10:27:14;;;;;;;;;;;20.80;39.60;;;;;;5135903;27;19908;-58
2021/12/02 10:29:39;;;;;;;;;;;20.90;39.90;;;;;;5117039;27;20059;-57
2021/12/02 10:32:08;;;;;;;;;;;20.90;40.00;;;;;;5135036;27;19911;-58
2021/12/02 10:34:52;;;;;;;;;;;21.00;40.10;;;;;;5134799;27;19933;-56
2021/12/02 10:37:19;;;;;;;;;;;21.00;40.10;;;;;;5135729;27;20002;-54
2021/12/02 10:40:03;;;;;;;;;;;21.00;40.10;;;;;;5135125;27;20354;-56
2021/12/02 10:42:30;;;;;;;;;;;21.00;40.10;;;;;;5135372;27;20176;-56
2021/12/02 10:44:58;;;;;;;;;;;21.00;40.10;;;;;;5134284;27;19915;-57
2021/12/02 10:47:24;;;;;;;;;;;21.10;40.00;;;;;;5135307;27;19976;-58
2021/12/02 10:49:51;;;;;;;;;;;21.10;40.00;;;;;;5135441;27;20346;-58
2021/12/02 10:52:24;;;;;;;;;;;21.10;40.00;;;;;;5135620;27;19907;-58
2021/12/02 10:54:55;;;;;;;;;;;21.10;40.10;;;;;;5133931;27;19911;-54
2021/12/02 10:57:22;;;;;;;;;;;21.10;40.10;;;;;;5134993;27;20335;-59
2021/12/02 10:59:49;;;;;;;;;;;21.10;40.10;;;;;;5135192;27;19907;-59
2021/12/02 11:02:21;;;;;;;;;;;21.10;40.10;;;;;;5135228;27;19951;-57
2021/12/02 11:04:48;;;;;;;;;;;21.10;40.00;;;;;;5134343;27;19938;-56
2021/12/02 11:07:40;;;;;;;;;;;21.10;40.00;;;;;;5134251;27;19907;-57
2021/12/02 11:10:05;;;;;;;;;;;21.10;40.00;;;;;;5129920;27;20009;-55
2021/12/02 11:12:32;;;;;;;;;;;21.10;39.80;;;;;;5134685;27;19942;-57
2021/12/02 11:14:59;;;;;;;;;;;21.10;40.00;;;;;;5134440;27;20389;-57
2021/12/02 11:17:30;;;;;;;;;;;21.10;39.90;;;;;;5134574;27;19950;-58
2021/12/02 11:19:56;;;;;;;;;;;21.10;39.90;;;;;;5134264;27;19908;-57
2021/12/02 11:22:22;;;;;;;;;;;21.20;39.90;;;;;;5134548;27;19994;-57
2021/12/02 11:24:49;;;;;;;;;;;21.20;40.00;;;;;;5134261;27;20026;-56
2021/12/02 11:27:16;;;;;;;;;;;21.20;40.00;;;;;;5134219;27;19907;-57
2021/12/02 11:29:53;;;;;;;;;;;21.20;39.90;;;;;;5134262;27;19938;-60
2021/12/02 11:32:39;;;;;;;;;;;21.20;39.90;;;;;;5134693;27;19956;-57
2021/12/02 11:35:24;;;;;;;;;;;21.20;39.90;;;;;;5134328;27;20315;-56
2021/12/02 11:37:55;;;;;;;;;;;21.20;40.00;;;;;;5132803;27;19952;-58
2021/12/02 11:40:23;;;;;;;;;;;21.30;40.00;;;;;;5133946;27;19915;-55
2021/12/02 11:42:50;;;;;;;;;;;21.30;40.00;;;;;;5134921;27;19912;-55
2021/12/02 11:45:16;;;;;;;;;;;21.30;40.00;;;;;;5134818;27;19959;-57
2021/12/02 11:47:42;;;;;;;;;;;21.20;40.20;;;;;;5134917;27;19907;-54
2021/12/02 11:50:08;;;;;;;;;;;21.20;40.00;;;;;;5134055;27;19911;-54
2021/12/02 11:52:35;;;;;;;;;;;21.30;40.10;;;;;;5134689;27;19908;-54
2021/12/02 11:55:02;;;;;;;;;;;21.30;39.90;;;;;;5134737;27;19907;-55
2021/12/02 11:57:28;;;;;;;;;;;21.30;39.90;;;;;;5134554;27;20393;-56
2021/12/02 11:59:53;;;;;;;;;;;21.30;39.90;;;;;;5134833;27;19950;-56
2021/12/02 12:02:18;;;;;;;;;;;21.30;39.90;;;;;;5133581;27;19908;-56
2021/12/02 12:04:58;;;;;;;;;;;21.30;40.00;;;;;;5132617;27;19915;-56
2021/12/02 12:07:37;;;;;;;;;;;21.30;40.00;;;;;;5132555;27;20425;-56
2021/12/02 12:10:13;;;;;;;;;;;21.30;40.00;;;;;;5132441;27;19907;-54
2021/12/02 12:12:42;;;;;;;;;;;21.40;39.90;;;;;;5132601;27;20285;-56
2021/12/02 12:15:28;;;;;;;;;;;21.30;40.00;;;;;;5132293;27;20289;-56
2021/12/02 12:17:53;;;;;;;;;;;21.30;40.00;;;;;;5133720;27;19907;-57
2021/12/02 12:20:19;;;;;;;;;;;21.30;39.90;;;;;;5134583;27;19933;-58
2021/12/02 12:22:44;;;;;;;;;;;21.30;40.10;;;;;;5134031;27;19907;-57
2021/12/02 12:25:10;;;;;;;;;;;21.30;40.20;;;;;;5134194;27;20010;-58
2021/12/02 12:27:36;;;;;;;;;;;21.40;40.10;;;;;;5134341;28;19914;-58
2021/12/02 12:30:06;;;;;;;;;;;21.30;40.00;;;;;;5134018;28;19959;-58
2021/12/02 12:32:47;;;;;;;;;;;21.40;40.00;;;;;;5134147;28;19942;-56
2021/12/02 12:35:22;;;;;;;;;;;21.40;40.00;;;;;;5134653;28;19914;-59
2021/12/02 12:37:49;;;;;;;;;;;21.40;40.10;;;;;;5132369;28;20351;-58
2021/12/02 12:40:21;;;;;;;;;;;21.40;39.90;;;;;;5132097;28;20397;-57
2021/12/02 12:42:51;;;;;;;;;;;21.40;40.00;;;;;;5132429;28;19907;-57
2021/12/02 12:45:24;;;;;;;;;;;21.40;40.00;;;;;;5132344;28;19923;-59
2021/12/02 12:47:51;;;;;;;;;;;21.40;39.90;;;;;;5132243;28;19907;-57
2021/12/02 12:50:22;;;;;;;;;;;21.40;40.00;;;;;;5132276;28;19919;-57
2021/12/02 12:53:16;;;;;;;;;;;21.40;40.00;;;;;;5133719;28;19911;-56
2021/12/02 12:56:02;;;;;;;;;;;21.40;39.90;;;;;;5136590;27;19952;-58
2021/12/02 12:58:32;;;;;;;;;;;21.50;40.00;;;;;;5137343;27;19927;-58
2021/12/02 13:01:05;;;;;;;;;;;21.50;40.00;;;;;;5138376;27;19907;-59
2021/12/02 13:06:16;;;;;;;;;;;21.50;39.90;;;;;;5137966;27;19911;-57
2021/12/02 13:08:46;;;;;;;;;;;21.50;39.90;;;;;;5138185;27;19915;-57
2021/12/02 13:11:17;;;;;;;;;;;21.50;39.80;;;;;;5137652;27;19915;-57
2021/12/02 13:13:44;;;;;;;;;;;21.30;40.20;;;;;;5137886;27;19908;-57
2021/12/02 13:16:10;;;;;;;;;;;21.40;40.10;;;;;;5138023;27;20030;-56
2021/12/02 13:18:40;;;;;;;;;;;21.50;39.80;;;;;;5137455;27;19913;-56
2021/12/02 13:21:21;;;;;;;;;;;21.50;39.90;;;;;;5137681;27;20048;-56
2021/12/02 13:24:05;;;;;;;;;;;21.50;39.90;;;;;;5137695;27;19915;-55
2021/12/02 13:26:33;;;;;;;;;;;21.50;39.90;;;;;;5137313;27;20010;-57
2021/12/02 13:29:06;;;;;;;;;;;21.50;39.90;;;;;;5137767;27;19912;-58
2021/12/02 13:31:32;;;;;;;;;;;21.50;39.90;;;;;;5119089;27;19908;-58
2021/12/02 13:34:00;;;;;;;;;;;21.50;39.90;;;;;;5137215;27;20065;-58
2021/12/02 13:36:34;;;;;;;;;;;21.50;39.90;;;;;;5137295;27;19907;-58
2021/12/02 13:39:02;;;;;;;;;;;21.50;40.00;;;;;;5137323;27;20430;-58
2021/12/02 13:41:28;;;;;;;;;;;21.50;39.60;;;;;;5135756;27;19911;-59
2021/12/02 13:43:55;;;;;;;;;;;21.50;40.00;;;;;;5143481;27;20387;-57
2021/12/02 13:46:27;;;;;;;;;;;21.50;39.70;;;;;;5136638;27;19938;-58
2021/12/02 13:48:53;;;;;;;;;;;21.50;39.80;;;;;;5154500;27;19913;-58
2021/12/02 13:54:17;;;;;;;;;;;21.50;40.00;;;;;;5156611;27;20276;-59
2021/12/02 13:56:42;;;;;;;;;;;21.50;39.90;;;;;;5156898;27;19911;-59
2021/12/02 13:59:16;;;;;;;;;;;21.50;39.90;;;;;;5157129;27;20026;-57
2021/12/02 14:01:51;;;;;;;;;;;21.60;39.80;;;;;;5157012;27;19975;-58
2021/12/02 14:04:16;;;;;;;;;;;21.60;39.80;;;;;;5156212;27;19938;-58
2021/12/02 14:06:42;;;;;;;;;;;21.60;39.80;;;;;;5155580;27;20262;-58
2021/12/02 14:09:17;;;;;;;;;;;21.60;39.90;;;;;;5156416;27;19911;-57
2021/12/02 14:11:43;;;;;;;;;;;21.60;39.90;;;;;;5155885;27;19911;-59
2021/12/02 14:14:15;;;;;;;;;;;21.60;39.80;;;;;;5155973;27;19915;-59
2021/12/02 14:16:40;;;;;;;;;;;21.60;39.80;;;;;;5156802;27;19907;-58
2021/12/02 14:19:10;;;;;;;;;;;21.60;39.90;;;;;;5156361;27;20334;-58
2021/12/02 14:21:35;;;;;;;;;;;21.60;39.90;;;;;;5156395;27;20385;-58
2021/12/02 14:24:01;;;;;;;;;;;21.60;39.90;;;;;;5155889;27;19918;-58
2021/12/02 14:26:29;;;;;;;;;;;21.60;39.90;;;;;;5156178;27;19911;-60
2021/12/02 14:28:55;;;;;;;;;;;21.60;39.90;;;;;;5155791;27;19994;-59
2021/12/02 14:31:21;;;;;;;;;;;21.60;39.80;;;;;;5155819;27;19918;-59
2021/12/02 14:33:47;;;;;;;;;;;21.60;39.90;;;;;;5155844;27;19907;-59
2021/12/02 14:36:14;;;;;;;;;;;21.60;39.90;;;;;;5155565;27;19933;-58